createdAt,value
2022-08-01T00:01:01.180Z,98009.70
2022-08-01T00:04:04.800Z,98007.10
2022-08-01T00:07:07.707Z,98004.44
2022-08-01T00:10:14.464Z,97999.46
2022-08-01T00:13:17.428Z,97999.66
2022-08-01T00:16:23.602Z,97996.76
2022-08-01T00:19:26.502Z,97997.28
2022-08-01T00:22:29.566Z,98000.21
2022-08-01T00:25:34.013Z,97998.89
2022-08-01T00:28:37.606Z,97995.86
2022-08-01T00:31:40.469Z,97994.88
2022-08-01T00:34:43.416Z,97994.90
2022-08-01T00:37:46.308Z,97994.25
2022-08-01T00:40:49.747Z,97992.60
2022-08-01T00:43:52.662Z,97984.55
2022-08-01T00:46:55.502Z,97986.95
2022-08-01T00:49:58.350Z,97986.52
2022-08-01T00:53:02.064Z,97989.21
2022-08-01T00:56:05.456Z,97988.70
2022-08-01T00:59:10.423Z,97991.10
2022-08-01T01:02:14.622Z,97989.38
2022-08-01T01:05:18.933Z,97988.38
2022-08-01T01:08:28.107Z,97989.92
2022-08-01T01:11:45.272Z,97992.17
2022-08-01T01:15:06.263Z,97995.30
2022-08-01T01:18:18.323Z,97992.88
2022-08-01T01:21:24.794Z,97988.91
2022-08-01T01:25:00.301Z,97989.73
2022-08-01T01:28:34.608Z,97988.38
2022-08-01T01:31:47.175Z,97989.04
2022-08-01T01:34:54.552Z,97987.83
2022-08-01T01:38:03.116Z,97981.68
2022-08-01T01:41:07.314Z,97978.34
2022-08-01T01:44:11.593Z,97977.34
2022-08-01T01:47:16.278Z,97973.66
2022-08-01T01:50:22.121Z,97976.55
2022-08-01T01:53:28.053Z,97976.30
2022-08-01T01:56:32.082Z,97976.75
2022-08-01T01:59:38.693Z,97975.76
2022-08-01T02:02:43.447Z,97975.98
2022-08-01T02:05:48.151Z,97975.42
2022-08-01T02:08:53.193Z,97974.10
2022-08-01T02:12:08.660Z,97969.10
2022-08-01T02:15:14.284Z,97967.48
2022-08-01T02:18:17.207Z,97964.20
2022-08-01T02:21:45.175Z,97964.06
2022-08-01T02:24:55.937Z,97968.07
2022-08-01T02:28:14.569Z,97973.52
2022-08-01T02:31:21.608Z,97974.38
2022-08-01T02:34:29.265Z,97976.80
2022-08-01T02:37:35.662Z,97979.73
2022-08-01T02:40:42.791Z,97976.18
2022-08-01T02:43:53.247Z,97980.67
2022-08-01T02:47:05.803Z,97982.27
2022-08-01T02:50:13.453Z,97984.74
2022-08-01T02:53:21.874Z,97983.58
2022-08-01T02:56:35.821Z,97983.38
2022-08-01T02:59:41.257Z,97977.13
2022-08-01T03:02:46.230Z,97984.27
2022-08-01T03:05:50.001Z,97983.72
2022-08-01T03:08:54.689Z,97982.83
2022-08-01T03:12:01.933Z,97981.66
2022-08-01T03:15:06.919Z,97984.05
2022-08-01T03:18:15.272Z,97978.99
2022-08-01T03:21:21.702Z,97979.34
2022-08-01T03:24:27.171Z,97978.80
2022-08-01T03:27:30.669Z,97974.84
2022-08-01T03:30:34.879Z,97973.14
2022-08-01T03:33:37.740Z,97976.39
2022-08-01T03:36:50.702Z,97978.21
2022-08-01T03:39:59.955Z,97980.20
2022-08-01T03:43:17.194Z,97980.85
2022-08-01T03:46:30.002Z,97981.91
2022-08-01T03:49:39.180Z,97980.67
2022-08-01T03:52:46.213Z,97985.46
2022-08-01T03:55:50.817Z,97986.57
2022-08-01T03:58:54.642Z,97988.61
2022-08-01T04:01:58.746Z,97994.56
2022-08-01T04:05:02.860Z,97999.34
2022-08-01T04:08:05.831Z,98002.09
2022-08-01T04:11:10.353Z,98000.66
2022-08-01T04:14:13.339Z,98004.17
2022-08-01T04:17:17.478Z,98000.61
2022-08-01T04:20:23.014Z,98007.36
2022-08-01T04:23:28.596Z,98006.78
2022-08-01T04:26:35.871Z,98006.98
2022-08-01T04:29:39.612Z,98002.29
2022-08-01T04:32:46.074Z,97999.94
2022-08-01T04:36:02.814Z,97994.50
2022-08-01T04:39:07.820Z,97994.15
2022-08-01T04:42:12.201Z,97991.24
2022-08-01T04:45:15.099Z,97987.67
2022-08-01T04:48:20.427Z,97990.83
2022-08-01T04:51:25.933Z,97992.53
2022-08-01T04:54:30.773Z,97992.84
2022-08-01T04:57:40.792Z,97994.50
2022-08-01T05:00:43.841Z,97990.45
2022-08-01T05:03:46.684Z,97993.36
2022-08-01T05:06:49.548Z,97995.42
2022-08-01T05:09:52.473Z,97992.11
2022-08-01T05:12:55.484Z,97995.88
2022-08-01T05:15:58.424Z,97993.66
2022-08-01T05:19:03.621Z,97992.45
2022-08-01T05:22:08.274Z,97987.02
2022-08-01T05:25:12.247Z,97987.17
2022-08-01T05:28:19.056Z,97986.23
2022-08-01T05:31:22.232Z,97980.92
2022-08-01T05:34:25.290Z,97986.48
2022-08-01T05:37:28.226Z,97987.02
2022-08-01T05:40:31.115Z,97987.25
2022-08-01T05:43:34.315Z,97985.91
2022-08-01T05:46:37.642Z,97980.89
2022-08-01T05:49:40.532Z,97983.92
2022-08-01T05:52:43.537Z,97987.13
2022-08-01T05:55:46.489Z,97993.02
2022-08-01T05:58:51.496Z,97994.48
2022-08-01T06:01:54.650Z,97998.66
2022-08-01T06:04:58.121Z,98001.18
2022-08-01T06:08:01.251Z,98004.86
2022-08-01T06:11:06.233Z,98002.60
2022-08-01T06:14:09.277Z,98004.91
2022-08-01T06:17:12.274Z,98005.62
2022-08-01T06:20:15.514Z,98006.95
2022-08-01T06:23:32.616Z,98009.98
2022-08-01T06:26:38.261Z,98009.69
2022-08-01T06:29:41.297Z,98009.87
2022-08-01T06:32:56.947Z,98007.41
2022-08-01T06:35:59.972Z,98008.98
2022-08-01T06:39:04.506Z,98004.33
2022-08-01T06:42:07.917Z,98006.27
2022-08-01T06:45:12.623Z,98012.87
2022-08-01T06:48:15.658Z,98013.96
2022-08-01T06:51:20.923Z,98016.40
2022-08-01T06:54:24.633Z,98013.39
2022-08-01T06:57:27.901Z,98016.89
2022-08-01T07:00:32.599Z,98014.02
2022-08-01T07:03:53.656Z,98007.88
2022-08-01T07:06:58.176Z,98007.32
2022-08-01T07:10:01.598Z,98004.11
2022-08-01T07:13:04.586Z,98007.13
2022-08-01T07:16:07.483Z,98007.95
2022-08-01T07:19:10.389Z,98008.86
2022-08-01T07:22:15.053Z,98004.60
2022-08-01T07:25:26.438Z,97997.90
2022-08-01T07:28:30.144Z,98007.20
2022-08-01T07:31:32.984Z,98007.80
2022-08-01T07:34:35.887Z,98004.23
2022-08-01T07:37:42.165Z,97999.48
2022-08-01T07:40:51.830Z,97998.86
2022-08-01T07:43:58.024Z,98003.00
2022-08-01T07:47:05.348Z,97999.07
2022-08-01T07:50:08.842Z,97994.52
2022-08-01T07:53:12.382Z,97988.60
2022-08-01T07:56:15.798Z,97994.61
2022-08-01T07:59:26.207Z,97997.73
2022-08-01T08:02:29.525Z,98005.44
2022-08-01T08:05:58.371Z,98000.70
2022-08-01T08:09:00.408Z,98000.84
2022-08-01T08:12:03.791Z,97999.61
2022-08-01T08:15:07.742Z,98004.67
2022-08-01T08:18:10.731Z,98005.66
2022-08-01T08:21:13.749Z,98011.25
2022-08-01T08:24:25.918Z,98011.88
2022-08-01T08:27:29.997Z,98013.06
2022-08-01T08:30:33.139Z,98011.48
2022-08-01T08:33:36.281Z,98013.17
2022-08-01T08:36:39.536Z,98015.91
2022-08-01T08:39:51.063Z,98019.58
2022-08-01T08:42:54.327Z,98021.05
2022-08-01T08:45:59.267Z,98023.50
2022-08-01T08:49:06.492Z,98025.33
2022-08-01T08:52:10.856Z,98027.33
2022-08-01T08:55:15.713Z,98028.02
2022-08-01T08:58:20.557Z,98033.61
2022-08-01T09:01:24.374Z,98033.17
2022-08-01T09:04:27.679Z,98033.15
2022-08-01T09:07:30.824Z,98040.61
2022-08-01T09:10:33.756Z,98038.96
2022-08-01T09:13:38.205Z,98040.48
2022-08-01T09:16:49.145Z,98038.31
2022-08-01T09:19:54.845Z,98043.10
2022-08-01T09:22:57.941Z,98042.77
2022-08-01T09:26:00.882Z,98041.72
2022-08-01T09:29:10.401Z,98040.94
2022-08-01T09:32:16.122Z,98039.70
2022-08-01T09:35:30.182Z,98040.08
2022-08-01T09:38:34.677Z,98036.84
2022-08-01T09:41:40.327Z,98038.14
2022-08-01T09:44:54.843Z,98039.84
2022-08-01T09:48:10.600Z,98039.54
2022-08-01T09:51:58.585Z,98041.98
2022-08-01T09:54:54.286Z,98043.98
2022-08-01T09:58:01.824Z,98044.70
2022-08-01T10:01:06.036Z,98048.02
2022-08-01T10:04:15.734Z,98047.27
2022-08-01T10:07:21.526Z,98044.23
2022-08-01T10:11:12.179Z,98042.84
2022-08-01T10:14:17.709Z,98039.16
2022-08-01T10:17:22.784Z,98037.02
2022-08-01T10:20:30.938Z,98032.89
2022-08-01T10:23:39.747Z,98035.04
2022-08-01T10:26:45.297Z,98036.66
2022-08-01T10:30:05.302Z,98036.20
2022-08-01T10:33:19.911Z,98036.81
2022-08-01T10:36:40.950Z,98035.23
2022-08-01T10:39:46.897Z,98032.77
2022-08-01T10:42:51.522Z,98032.20
2022-08-01T10:45:56.314Z,98031.59
2022-08-01T10:49:16.913Z,98036.63
2022-08-01T10:52:20.987Z,98038.73
2022-08-01T10:55:26.078Z,98037.69
2022-08-01T10:58:30.526Z,98036.45
2022-08-01T11:01:37.563Z,98036.95
2022-08-01T11:04:46.702Z,98038.33
2022-08-01T11:07:56.181Z,98038.41
2022-08-01T11:11:02.866Z,98038.86
2022-08-01T11:14:13.636Z,98038.14
2022-08-01T11:17:42.041Z,98039.55
2022-08-01T11:21:57.956Z,98037.14
2022-08-01T11:24:55.449Z,98039.13
2022-08-01T11:28:15.312Z,98039.14
2022-08-01T11:31:22.806Z,98033.79
2022-08-01T11:34:57.695Z,98029.76
2022-08-01T11:38:31.059Z,98028.52
2022-08-01T11:41:37.678Z,98029.41
2022-08-01T11:44:52.447Z,98029.66
2022-08-01T11:47:57.005Z,98028.48
2022-08-01T11:51:02.234Z,98024.85
2022-08-01T11:54:05.656Z,98023.94
2022-08-01T11:57:22.955Z,98026.08
2022-08-01T12:00:27.111Z,98027.34
2022-08-01T12:03:34.567Z,98023.67
2022-08-01T12:06:38.137Z,98021.75
2022-08-01T12:09:45.710Z,98013.86
2022-08-01T12:12:54.517Z,98014.63
2022-08-01T12:15:59.186Z,98014.48
2022-08-01T12:19:02.979Z,98016.67
2022-08-01T12:22:14.847Z,98008.02
2022-08-01T12:25:18.931Z,98011.48
2022-08-01T12:28:22.349Z,98009.18
2022-08-01T12:31:35.537Z,98007.31
2022-08-01T12:34:41.997Z,98004.98
2022-08-01T12:37:50.594Z,98002.57
2022-08-01T12:40:54.928Z,98004.16
2022-08-01T12:43:58.144Z,98002.35
2022-08-01T12:47:02.499Z,97999.75
2022-08-01T12:50:12.850Z,97999.11
2022-08-01T12:53:17.105Z,98001.72
2022-08-01T12:56:33.124Z,98000.00
2022-08-01T12:59:36.791Z,97999.67
2022-08-01T13:02:42.801Z,97997.17
2022-08-01T13:05:53.392Z,97995.20
2022-08-01T13:09:05.722Z,97993.86
2022-08-01T13:12:12.775Z,97993.37
2022-08-01T13:15:20.605Z,97996.61
2022-08-01T13:18:26.379Z,97995.73
2022-08-01T13:21:52.497Z,97995.00
2022-08-01T13:24:53.802Z,97991.00
2022-08-01T13:28:16.063Z,97990.42
2022-08-01T13:31:18.917Z,97989.46
2022-08-01T13:34:35.123Z,97981.52
2022-08-01T13:37:39.551Z,97988.16
2022-08-01T13:40:42.558Z,97986.77
2022-08-01T13:43:57.539Z,97984.82
2022-08-01T13:47:14.889Z,97980.52
2022-08-01T13:50:19.898Z,97980.48
2022-08-01T13:53:22.974Z,97983.74
2022-08-01T13:56:28.620Z,97985.66
2022-08-01T13:59:31.637Z,97984.35
2022-08-01T14:02:35.280Z,97982.12
2022-08-01T14:05:38.741Z,97982.45
2022-08-01T14:08:46.038Z,97983.01
2022-08-01T14:11:50.424Z,97986.20
2022-08-01T14:14:54.483Z,97984.30
2022-08-01T14:17:57.429Z,97982.63
2022-08-01T14:21:05.376Z,97983.20
2022-08-01T14:24:09.481Z,97985.06
2022-08-01T14:27:12.663Z,97986.13
2022-08-01T14:30:15.732Z,97994.50
2022-08-01T14:33:18.598Z,97994.40
2022-08-01T14:36:30.282Z,97993.63
2022-08-01T14:39:34.309Z,97994.82
2022-08-01T14:42:39.354Z,98000.50
2022-08-01T14:45:42.287Z,98005.97
2022-08-01T14:48:45.150Z,98003.68
2022-08-01T14:51:48.069Z,98006.70
2022-08-01T14:54:50.962Z,98004.83
2022-08-01T14:57:54.823Z,98005.86
2022-08-01T15:00:59.250Z,98008.73
2022-08-01T15:04:04.543Z,98012.75
2022-08-01T15:07:07.628Z,98011.92
2022-08-01T15:10:10.965Z,98017.77
2022-08-01T15:13:13.932Z,98020.67
2022-08-01T15:16:16.781Z,98015.56
2022-08-01T15:19:19.714Z,98015.89
2022-08-01T15:22:24.097Z,98015.83
2022-08-01T15:25:41.458Z,98011.09
2022-08-01T15:28:45.134Z,98012.06
2022-08-01T15:31:48.034Z,98017.16
2022-08-01T15:34:51.011Z,98014.36
2022-08-01T15:37:53.926Z,98008.35
2022-08-01T15:40:56.878Z,98012.64
2022-08-01T15:43:59.732Z,98011.71
2022-08-01T15:47:03.687Z,98017.61
2022-08-01T15:50:08.030Z,98017.76
2022-08-01T15:53:11.064Z,98025.48
2022-08-01T15:56:14.663Z,98033.33
2022-08-01T15:59:18.113Z,98033.02
2022-08-01T16:02:21.243Z,98029.44
2022-08-01T16:05:24.381Z,98033.14
2022-08-01T16:08:27.289Z,98033.55
2022-08-01T16:11:30.289Z,98035.27
2022-08-01T16:14:33.271Z,98031.25
2022-08-01T16:17:40.497Z,98030.80
2022-08-01T16:20:47.626Z,98026.80
2022-08-01T16:23:52.032Z,98026.58
2022-08-01T16:26:55.785Z,98027.12
2022-08-01T16:29:58.760Z,98026.59
2022-08-01T16:33:06.331Z,98029.73
2022-08-01T16:36:24.888Z,98032.34
2022-08-01T16:39:30.509Z,98027.24
2022-08-01T16:42:36.970Z,98028.16
2022-08-01T16:45:42.642Z,98032.71
2022-08-01T16:48:46.050Z,98037.19
2022-08-01T16:51:49.016Z,98042.41
2022-08-01T16:54:51.972Z,98042.69
2022-08-01T16:57:57.770Z,98047.39
2022-08-01T17:02:01.298Z,98052.71
2022-08-01T17:04:24.065Z,98054.44
2022-08-01T17:07:27.775Z,98060.64
2022-08-01T17:10:31.732Z,98061.33
2022-08-01T17:13:34.910Z,98061.33
2022-08-01T17:16:38.389Z,98062.48
2022-08-01T17:19:41.484Z,98061.03
2022-08-01T17:22:44.503Z,98058.14
2022-08-01T17:25:47.697Z,98059.88
2022-08-01T17:28:50.684Z,98059.45
2022-08-01T17:31:54.419Z,98062.20
2022-08-01T17:34:57.328Z,98065.73
2022-08-01T17:38:00.577Z,98068.35
2022-08-01T17:41:03.512Z,98067.70
2022-08-01T17:44:07.536Z,98071.67
2022-08-01T17:47:10.761Z,98073.63
2022-08-01T17:50:13.993Z,98072.09
2022-08-01T17:53:20.922Z,98082.74
2022-08-01T17:56:26.200Z,98082.48
2022-08-01T17:59:29.397Z,98078.80
2022-08-01T18:02:32.356Z,98080.02
2022-08-01T18:05:37.471Z,98084.42
2022-08-01T18:08:42.007Z,98089.66
2022-08-01T18:11:45.697Z,98092.75
2022-08-01T18:14:48.930Z,98098.83
2022-08-01T18:17:52.372Z,98099.23
2022-08-01T18:20:55.289Z,98102.90
2022-08-01T18:24:02.999Z,98105.70
2022-08-01T18:27:06.424Z,98106.34
2022-08-01T18:30:10.162Z,98110.60
2022-08-01T18:33:13.065Z,98115.48
2022-08-01T18:36:31.999Z,98118.77
2022-08-01T18:39:36.881Z,98116.12
2022-08-01T18:42:42.205Z,98121.84
2022-08-01T18:45:45.100Z,98120.29
2022-08-01T18:48:48.673Z,98122.92
2022-08-01T18:51:52.016Z,98124.29
2022-08-01T18:54:55.440Z,98127.61
2022-08-01T18:57:58.417Z,98135.84
2022-08-01T19:01:01.513Z,98132.39
2022-08-01T19:04:04.615Z,98132.30
2022-08-01T19:07:08.086Z,98135.14
2022-08-01T19:10:12.361Z,98134.56
2022-08-01T19:13:16.776Z,98138.77
2022-08-01T19:16:19.693Z,98139.41
2022-08-01T19:19:27.806Z,98136.13
2022-08-01T19:22:31.130Z,98139.27
2022-08-01T19:25:34.403Z,98140.28
2022-08-01T19:29:02.121Z,98145.77
2022-08-01T19:32:07.043Z,98148.80
2022-08-01T19:35:12.943Z,98160.33
2022-08-01T19:38:16.738Z,98164.02
2022-08-01T19:41:19.700Z,98166.29
2022-08-01T19:44:24.939Z,98163.20
2022-08-01T19:47:51.637Z,98166.83
2022-08-01T19:50:52.623Z,98171.80
2022-08-01T19:53:58.612Z,98175.23
2022-08-01T19:57:06.127Z,98186.30
2022-08-01T20:00:10.578Z,98192.89
2022-08-01T20:03:28.388Z,98196.20
2022-08-01T20:06:33.246Z,98206.04
2022-08-01T20:09:39.233Z,98210.91
2022-08-01T20:12:42.889Z,98203.84
2022-08-01T20:15:46.781Z,98197.77
2022-08-01T20:18:50.229Z,98189.46
2022-08-01T20:22:02.766Z,98190.57
2022-08-01T20:25:09.985Z,98194.71
2022-08-01T20:28:13.531Z,98202.56
2022-08-01T20:31:19.620Z,98207.29
2022-08-01T20:34:24.531Z,98207.75
2022-08-01T20:38:01.251Z,98207.75
2022-08-01T20:40:53.280Z,98208.80
2022-08-01T20:43:57.635Z,98205.30
2022-08-01T20:47:05.248Z,98202.96
2022-08-01T20:50:53.261Z,98204.41
2022-08-01T20:53:52.684Z,98206.10
2022-08-01T20:56:59.249Z,98210.29
2022-08-01T21:00:06.075Z,98213.20
2022-08-01T21:03:15.763Z,98218.46
2022-08-01T21:06:26.167Z,98219.77
2022-08-01T21:09:39.776Z,98222.14
2022-08-01T21:12:59.078Z,98219.91
2022-08-01T21:16:22.186Z,98221.42
2022-08-01T21:19:27.943Z,98214.86
2022-08-01T21:22:41.615Z,98214.14
2022-08-01T21:25:44.623Z,98219.38
2022-08-01T21:28:54.530Z,98221.77
2022-08-01T21:32:13.199Z,98224.59
2022-08-01T21:35:19.142Z,98227.70
2022-08-01T21:38:24.205Z,98227.33
2022-08-01T21:42:03.489Z,98228.51
2022-08-01T21:44:54.602Z,98229.43
2022-08-01T21:47:59.183Z,98230.42
2022-08-01T21:51:14.808Z,98229.08
2022-08-01T21:54:45.964Z,98227.36
2022-08-01T21:57:48.863Z,98227.41
2022-08-01T22:00:57.559Z,98229.64
2022-08-01T22:04:03.031Z,98229.50
2022-08-01T22:07:10.653Z,98227.10
2022-08-01T22:10:16.582Z,98231.32
2022-08-01T22:13:19.479Z,98231.55
2022-08-01T22:16:23.618Z,98231.18
2022-08-01T22:19:32.409Z,98230.52
2022-08-01T22:22:52.232Z,98231.70
2022-08-01T22:25:56.031Z,98228.38
2022-08-01T22:29:00.286Z,98223.42
2022-08-01T22:32:03.666Z,98222.35
2022-08-01T22:35:12.272Z,98224.30
2022-08-01T22:38:18.062Z,98227.30
2022-08-01T22:41:26.222Z,98231.95
2022-08-01T22:44:40.459Z,98230.58
2022-08-01T22:48:00.107Z,98235.02
2022-08-01T22:51:09.321Z,98237.30
2022-08-01T22:54:14.523Z,98236.92
2022-08-01T22:57:55.242Z,98234.31
2022-08-01T23:01:01.481Z,98230.24
2022-08-01T23:04:05.843Z,98231.09
2022-08-01T23:07:10.850Z,98233.25
2022-08-01T23:10:13.886Z,98238.08
2022-08-01T23:13:17.661Z,98238.45
2022-08-01T23:16:21.873Z,98236.34
2022-08-01T23:19:26.193Z,98238.13
2022-08-01T23:22:32.387Z,98238.90
2022-08-01T23:25:37.454Z,98234.89
2022-08-01T23:28:41.357Z,98233.96
2022-08-01T23:32:03.163Z,98234.34
2022-08-01T23:35:07.444Z,98236.25
2022-08-01T23:38:11.010Z,98235.63
2022-08-01T23:41:16.697Z,98231.73
2022-08-01T23:44:19.530Z,98230.92
2022-08-01T23:47:23.558Z,98232.73
2022-08-01T23:50:27.238Z,98233.27
2022-08-01T23:53:31.906Z,98233.41
2022-08-01T23:56:34.941Z,98233.95
2022-08-01T23:59:53.629Z,98237.54
